Time;durP1;ratioP1;P1;durP2;ratioP2;P2;SDS_P1;SDS_P2;PMS_P1;PMS_P2;Temp;Humidity;BMP_temperature;BMP_pressure;BME280_temperature;BME280_humidity;BME280_pressure;Samples;Min_cycle;Max_cycle;Signal;HPM_P1;HPM_P2
2023/10/21 12:13:14;;;;;;;7.05;3.25;;;;;;;;;;5116571;28;20062;-76
2023/10/21 12:18:34;;;;;;;3.90;2.53;;;;;;;;;;5118831;28;20050;-73
2023/10/21 12:24:54;;;;;;;6.30;2.63;;;;;;;;;;5088021;28;20052;-74
2023/10/21 12:31:25;;;;;;;5.78;2.70;;;;;;;;;;5118127;28;20068;-74
2023/10/21 12:34:20;;;;;;;5.10;2.50;;;;;;;;;;5119071;28;20055;-75
2023/10/21 12:45:59;;;;;;;6.88;2.60;;;;;;;;;;5118653;28;20039;-75
2023/10/21 12:48:43;;;;;;;7.20;2.97;;;;;;;;;;5118937;28;20044;-74
2023/10/21 12:51:48;;;;;;;7.05;2.70;;;;;;;;;;5112908;28;20051;-75
2023/10/21 12:54:51;;;;;;;3.95;2.58;;;;;;;;;;5114458;28;20524;-76
2023/10/21 12:57:29;;;;;;;4.57;2.40;;;;;;;;;;5078176;28;20056;-72
2023/10/21 13:00:31;;;;;;;4.88;2.60;;;;;;;;;;5098888;28;20044;-72
2023/10/21 13:03:07;;;;;;;6.07;2.63;;;;;;;;;;5098674;28;20500;-75
2023/10/21 13:05:46;;;;;;;3.45;2.80;;;;;;;;;;5097601;28;20047;-75
2023/10/21 13:08:38;;;;;;;7.50;2.80;;;;;;;;;;5098671;28;20047;-75
2023/10/21 13:11:29;;;;;;;5.65;2.63;;;;;;;;;;5092851;28;20048;-72
2023/10/21 13:13:59;;;;;;;7.05;2.72;;;;;;;;;;5084924;28;20055;-72
2023/10/21 13:16:52;;;;;;;9.18;3.00;;;;;;;;;;5084368;28;20061;-74
2023/10/21 14:19:53;;;;;;;9.15;3.28;;;;;;;;;;5101483;27;20404;-73
2023/10/21 14:40:13;;;;;;;5.75;3.00;;;;;;;;;;5100410;27;20412;-76
2023/10/21 14:42:44;;;;;;;5.00;3.00;;;;;;;;;;5100030;28;20050;-75
2023/10/21 14:45:50;;;;;;;7.10;3.20;;;;;;;;;;5099458;28;20403;-78
2023/10/21 14:48:21;;;;;;;3.65;2.47;;;;;;;;;;5099651;28;20513;-73
2023/10/21 14:51:00;;;;;;;4.68;2.72;;;;;;;;;;5099085;28;20048;-77
2023/10/21 14:53:34;;;;;;;5.60;2.75;;;;;;;;;;5099593;28;20044;-74
2023/10/21 14:56:19;;;;;;;6.57;2.75;;;;;;;;;;5100064;28;20044;-75
2023/10/21 14:59:24;;;;;;;8.70;2.92;;;;;;;;;;5077905;28;20075;-75
2023/10/21 15:02:31;;;;;;;4.97;3.20;;;;;;;;;;5076720;28;20059;-75
2023/10/21 15:05:34;;;;;;;6.38;3.28;;;;;;;;;;5079355;28;20518;-76
2023/10/21 15:08:25;;;;;;;6.88;2.88;;;;;;;;;;5077675;28;20482;-76
2023/10/21 15:10:57;;;;;;;;;;;;;;;;;;5076756;28;20062;-76
2023/10/21 15:13:27;;;;;;;4.18;2.67;;;;;;;;;;5078728;28;19927;-75
2023/10/21 15:16:01;;;;;;;7.00;2.58;;;;;;;;;;5079260;28;20378;-73
2023/10/21 15:18:33;;;;;;;5.00;2.63;;;;;;;;;;5079323;28;20055;-77
2023/10/21 15:21:37;;;;;;;6.03;3.08;;;;;;;;;;5077243;28;20059;-75
2023/10/21 15:24:33;;;;;;;4.22;3.00;;;;;;;;;;5076481;28;20506;-75
2023/10/21 15:27:05;;;;;;;8.35;3.35;;;;;;;;;;5076490;28;20048;-74
2023/10/21 15:29:35;;;;;;;6.05;3.42;;;;;;;;;;5075609;28;20052;-75
2023/10/21 15:32:09;;;;;;;6.25;3.20;;;;;;;;;;5076340;28;20098;-75
2023/10/21 15:34:46;;;;;;;;;;;;;;;;;;5076317;28;20055;-74
2023/10/21 15:37:19;;;;;;;4.80;2.90;;;;;;;;;;5075870;28;19920;-73
2023/10/21 15:39:51;;;;;;;4.72;2.75;;;;;;;;;;5075166;28;20048;-77
2023/10/21 15:42:34;;;;;;;7.30;3.20;;;;;;;;;;5075977;28;20869;-79
2023/10/21 15:45:05;;;;;;;8.13;3.20;;;;;;;;;;5075502;28;20060;-74
2023/10/21 15:47:35;;;;;;;6.57;3.17;;;;;;;;;;5075514;28;20048;-85
2023/10/21 15:50:12;;;;;;;9.73;3.50;;;;;;;;;;5067248;28;20426;-73
2023/10/21 15:52:45;;;;;;;4.85;2.92;;;;;;;;;;5056691;28;20053;-75
2023/10/21 15:55:16;;;;;;;7.45;2.75;;;;;;;;;;5063551;28;20509;-73
2023/10/21 15:57:47;;;;;;;5.60;3.10;;;;;;;;;;5064756;28;20049;-74
2023/10/21 16:00:57;;;;;;;9.18;3.20;;;;;;;;;;5064390;28;20406;-74
2023/10/21 16:03:27;;;;;;;7.07;3.40;;;;;;;;;;5064595;28;20044;-76
2023/10/21 16:06:26;;;;;;;7.40;3.15;;;;;;;;;;5065248;28;20048;-72
2023/10/21 16:09:10;;;;;;;4.90;3.08;;;;;;;;;;5063678;28;20052;-74
2023/10/21 16:12:10;;;;;;;8.07;3.35;;;;;;;;;;5065337;28;20047;-75
2023/10/21 16:14:43;;;;;;;11.93;3.35;;;;;;;;;;5064476;28;20040;-73
2023/10/21 16:17:22;;;;;;;4.85;2.90;;;;;;;;;;5065318;28;20051;-73
2023/10/21 16:19:53;;;;;;;5.85;3.28;;;;;;;;;;5063657;28;20036;-74
2023/10/21 16:22:22;;;;;;;8.32;3.20;;;;;;;;;;5064197;28;20045;-76
2023/10/21 16:24:54;;;;;;;9.77;3.42;;;;;;;;;;5064056;28;20491;-74
2023/10/21 16:27:25;;;;;;;6.57;3.35;;;;;;;;;;5064697;28;20044;-75
2023/10/21 16:29:56;;;;;;;5.70;3.08;;;;;;;;;;5063132;28;20048;-78
2023/10/21 16:32:26;;;;;;;5.75;2.58;;;;;;;;;;5064418;28;20048;-75
2023/10/21 16:35:15;;;;;;;8.63;3.20;;;;;;;;;;5063095;28;20095;-73
2023/10/21 16:37:54;;;;;;;5.38;2.85;;;;;;;;;;5063429;28;20045;-75
2023/10/21 16:40:27;;;;;;;6.65;3.67;;;;;;;;;;5064031;28;20664;-76
2023/10/21 16:42:58;;;;;;;10.75;3.10;;;;;;;;;;5060343;28;20040;-76
2023/10/21 16:45:43;;;;;;;6.32;3.40;;;;;;;;;;5064803;28;20044;-75
2023/10/21 16:48:17;;;;;;;6.55;2.97;;;;;;;;;;5064975;28;21053;-74
2023/10/21 16:50:48;;;;;;;5.28;3.10;;;;;;;;;;5063619;28;20044;-75
2023/10/21 16:53:41;;;;;;;7.63;3.70;;;;;;;;;;5063517;28;20044;-75
2023/10/21 16:56:58;;;;;;;8.48;3.28;;;;;;;;;;5063651;28;20045;-75
2023/10/21 16:59:39;;;;;;;10.88;3.47;;;;;;;;;;5061004;28;20064;-74
2023/10/21 17:02:11;;;;;;;6.50;2.95;;;;;;;;;;5059892;28;20063;-82
2023/10/21 17:04:45;;;;;;;7.80;3.05;;;;;;;;;;5060784;28;20060;-80
2023/10/21 17:07:15;;;;;;;8.35;3.40;;;;;;;;;;5043819;28;20050;-75
2023/10/21 17:09:48;;;;;;;6.85;3.10;;;;;;;;;;5059800;28;20049;-75
2023/10/21 17:12:19;;;;;;;7.63;3.10;;;;;;;;;;5060535;28;20048;-75
2023/10/21 17:14:56;;;;;;;7.03;3.08;;;;;;;;;;5060612;28;20131;-75
2023/10/21 17:17:39;;;;;;;5.28;3.30;;;;;;;;;;5059212;28;20048;-73
2023/10/21 17:20:26;;;;;;;8.25;3.67;;;;;;;;;;5060734;28;20080;-76
2023/10/21 17:23:00;;;;;;;7.10;3.15;;;;;;;;;;5043167;28;20547;-76
2023/10/21 17:25:31;;;;;;;5.30;3.20;;;;;;;;;;5059999;28;20060;-76
2023/10/21 17:28:00;;;;;;;7.75;3.80;;;;;;;;;;5059977;28;20063;-77
2023/10/21 17:30:31;;;;;;;6.35;3.30;;;;;;;;;;5059358;28;20075;-74
2023/10/21 17:33:02;;;;;;;8.65;3.10;;;;;;;;;;5059292;28;20184;-80
2023/10/21 17:35:33;;;;;;;5.32;3.10;;;;;;;;;;5060721;28;20444;-76
2023/10/21 17:38:03;;;;;;;4.82;3.20;;;;;;;;;;5059388;28;20044;-74
2023/10/21 17:40:57;;;;;;;4.57;3.45;;;;;;;;;;5059984;28;20072;-76
2023/10/21 17:43:29;;;;;;;6.25;3.30;;;;;;;;;;5059411;28;20044;-77
2023/10/21 17:46:21;;;;;;;8.32;3.22;;;;;;;;;;5060694;28;20059;-74
2023/10/21 17:48:55;;;;;;;9.18;4.30;;;;;;;;;;5060275;28;20406;-79
2023/10/21 17:51:25;;;;;;;6.53;2.88;;;;;;;;;;5062698;28;20057;-73
2023/10/21 17:53:58;;;;;;;6.38;3.75;;;;;;;;;;5063084;28;20052;-76
2023/10/21 17:56:50;;;;;;;5.80;3.20;;;;;;;;;;5062685;28;20044;-73
2023/10/21 17:59:36;;;;;;;6.70;3.50;;;;;;;;;;5063356;28;20048;-75
2023/10/21 18:02:28;;;;;;;7.93;3.50;;;;;;;;;;5062975;28;20667;-73
2023/10/21 18:05:18;;;;;;;9.55;3.25;;;;;;;;;;5000145;28;20579;-76
2023/10/21 18:08:14;;;;;;;5.78;2.97;;;;;;;;;;4999274;28;20088;-75
2023/10/21 18:11:06;;;;;;;5.75;3.42;;;;;;;;;;4998267;28;20452;-76
2023/10/21 18:14:19;;;;;;;6.53;3.67;;;;;;;;;;4999511;28;20042;-75
2023/10/21 18:17:27;;;;;;;9.20;3.30;;;;;;;;;;4999525;28;20049;-76
2023/10/21 18:20:31;;;;;;;6.10;2.97;;;;;;;;;;4997675;28;20054;-75
2023/10/21 18:23:25;;;;;;;7.43;3.75;;;;;;;;;;5000692;28;20534;-76
2023/10/21 18:26:40;;;;;;;14.70;3.70;;;;;;;;;;5000298;28;20041;-77
2023/10/21 18:29:27;;;;;;;8.38;3.40;;;;;;;;;;4999813;28;20050;-76
2023/10/21 18:31:58;;;;;;;8.88;3.28;;;;;;;;;;4999548;28;20049;-77
2023/10/21 18:34:28;;;;;;;7.80;3.47;;;;;;;;;;4999577;28;20048;-75
2023/10/21 18:37:04;;;;;;;6.40;3.00;;;;;;;;;;4999712;28;20092;-74
2023/10/21 18:39:37;;;;;;;8.32;3.15;;;;;;;;;;5000211;28;20057;-74
2023/10/21 18:42:07;;;;;;;5.85;3.30;;;;;;;;;;5015944;28;20052;-74
2023/10/21 18:44:45;;;;;;;6.43;3.42;;;;;;;;;;5062697;28;20040;-77
2023/10/21 18:47:16;;;;;;;6.97;3.40;;;;;;;;;;5044194;28;20052;-76
2023/10/21 18:49:46;;;;;;;5.72;2.92;;;;;;;;;;5061526;28;20067;-75
2023/10/21 18:52:16;;;;;;;8.25;2.67;;;;;;;;;;5061869;28;20071;-72
2023/10/21 18:54:53;;;;;;;11.80;3.75;;;;;;;;;;5061685;28;20047;-72
2023/10/21 18:57:36;;;;;;;9.55;3.13;;;;;;;;;;5061533;28;20049;-81
2023/10/21 19:00:13;;;;;;;7.05;3.08;;;;;;;;;;5061038;28;20056;-73
2023/10/21 19:02:43;;;;;;;7.50;2.97;;;;;;;;;;5061668;28;20045;-74
2023/10/21 19:05:26;;;;;;;9.00;3.80;;;;;;;;;;5061664;28;20041;-72
2023/10/21 19:07:58;;;;;;;16.88;3.90;;;;;;;;;;5060371;28;20044;-73
2023/10/21 19:10:56;;;;;;;9.23;3.15;;;;;;;;;;5061591;28;20044;-75
2023/10/21 19:14:03;;;;;;;13.05;3.70;;;;;;;;;;5062248;28;20064;-75
2023/10/21 19:16:34;;;;;;;9.25;3.38;;;;;;;;;;5061680;28;20049;-73
2023/10/21 19:19:11;;;;;;;8.77;3.30;;;;;;;;;;5061240;28;20045;-78
2023/10/21 19:22:05;;;;;;;9.45;3.03;;;;;;;;;;5061411;28;20041;-76
2023/10/21 19:24:42;;;;;;;8.55;3.33;;;;;;;;;;5059068;28;20045;-76
2023/10/21 19:27:36;;;;;;;8.07;2.83;;;;;;;;;;5064974;28;20053;-76
2023/10/21 19:30:19;;;;;;;13.68;3.72;;;;;;;;;;5065209;28;20047;-75
2023/10/21 19:33:32;;;;;;;9.68;3.42;;;;;;;;;;5064451;28;20056;-74
2023/10/21 19:36:06;;;;;;;7.65;2.85;;;;;;;;;;5044988;28;20041;-75
2023/10/21 19:38:45;;;;;;;12.60;3.00;;;;;;;;;;5043468;28;20053;-74
2023/10/21 19:41:16;;;;;;;10.98;3.00;;;;;;;;;;5045840;28;20372;-74
2023/10/21 19:43:52;;;;;;;8.20;3.00;;;;;;;;;;5044607;28;20430;-74
2023/10/21 19:46:24;;;;;;;8.80;3.40;;;;;;;;;;5045529;28;20052;-72
2023/10/21 19:48:54;;;;;;;5.90;2.83;;;;;;;;;;5044832;28;20044;-73
2023/10/21 19:51:26;;;;;;;9.77;2.78;;;;;;;;;;5044761;28;20045;-73
2023/10/21 19:53:57;;;;;;;9.73;3.28;;;;;;;;;;5045001;28;20057;-73
2023/10/21 19:57:12;;;;;;;7.43;3.67;;;;;;;;;;5044879;28;20394;-74
2023/10/21 19:59:43;;;;;;;9.20;3.47;;;;;;;;;;5044618;28;20057;-74
2023/10/21 20:02:19;;;;;;;7.30;2.97;;;;;;;;;;5044090;28;20041;-74
2023/10/21 20:05:25;;;;;;;8.48;3.58;;;;;;;;;;5043405;28;20516;-74
2023/10/21 20:07:56;;;;;;;7.97;3.80;;;;;;;;;;5043138;28;20053;-73
2023/10/21 20:10:32;;;;;;;12.13;3.63;;;;;;;;;;5044234;28;20538;-75
2023/10/21 20:13:08;;;;;;;6.78;3.30;;;;;;;;;;5044353;28;20053;-74
2023/10/21 20:16:43;;;;;;;13.68;4.20;;;;;;;;;;5042280;28;20045;-75
2023/10/21 20:19:16;;;;;;;9.05;4.20;;;;;;;;;;5044451;28;20025;-75
2023/10/21 20:21:47;;;;;;;10.40;3.90;;;;;;;;;;5042781;28;20052;-75
2023/10/21 20:24:18;;;;;;;9.55;4.13;;;;;;;;;;5044399;28;20049;-77
2023/10/21 20:26:51;;;;;;;7.00;3.50;;;;;;;;;;5044042;28;20056;-74
2023/10/21 20:29:22;;;;;;;14.18;4.10;;;;;;;;;;5043042;28;20064;-72
2023/10/21 20:31:53;;;;;;;8.20;3.60;;;;;;;;;;5042006;28;20056;-73
2023/10/21 20:34:24;;;;;;;8.35;3.75;;;;;;;;;;5042725;28;20049;-73
2023/10/21 20:37:20;;;;;;;11.65;3.92;;;;;;;;;;5042941;28;20045;-74
2023/10/21 20:39:56;;;;;;;10.77;3.53;;;;;;;;;;5043165;28;20457;-72
2023/10/21 20:42:30;;;;;;;10.18;3.45;;;;;;;;;;5043648;28;20060;-72
2023/10/21 20:45:04;;;;;;;7.07;3.50;;;;;;;;;;5043816;28;20064;-72
2023/10/21 20:47:35;;;;;;;10.32;4.00;;;;;;;;;;5043616;28;20041;-75
2023/10/21 20:50:06;;;;;;;11.65;3.20;;;;;;;;;;5041122;28;20049;-73
2023/10/21 20:52:44;;;;;;;9.20;3.80;;;;;;;;;;5053172;28;20056;-76
2023/10/21 21:00:01;;;;;;;10.73;3.08;;;;;;;;;;5061454;28;20776;-72
2023/10/21 21:10:36;;;;;;;16.00;3.10;;;;;;;;;;5081217;27;20418;-72
2023/10/21 21:13:10;;;;;;;10.75;2.97;;;;;;;;;;5079576;28;20406;-72
2023/10/21 21:15:40;;;;;;;7.55;2.83;;;;;;;;;;5061611;28;20052;-72
2023/10/21 21:18:12;;;;;;;11.68;3.30;;;;;;;;;;5079507;28;20577;-72
2023/10/21 21:20:45;;;;;;;10.80;3.45;;;;;;;;;;5078611;28;20048;-73
2023/10/21 21:23:15;;;;;;;8.80;3.45;;;;;;;;;;5079754;28;20044;-72
2023/10/21 21:26:07;;;;;;;7.60;3.55;;;;;;;;;;5077263;28;20059;-72
2023/10/21 21:29:17;;;;;;;14.48;3.75;;;;;;;;;;5077263;28;20414;-72
2023/10/21 21:31:47;;;;;;;14.02;3.97;;;;;;;;;;5079829;28;20051;-74
2023/10/21 21:34:19;;;;;;;11.77;3.88;;;;;;;;;;5077808;28;20040;-74
2023/10/21 21:36:49;;;;;;;8.10;3.30;;;;;;;;;;5077976;28;20055;-75
2023/10/21 21:39:26;;;;;;;7.35;3.20;;;;;;;;;;5079120;28;20051;-73
2023/10/21 21:41:58;;;;;;;11.70;3.42;;;;;;;;;;5074649;28;20525;-73
2023/10/21 21:44:38;;;;;;;11.40;3.47;;;;;;;;;;5078982;28;20048;-73
2023/10/21 21:47:12;;;;;;;9.98;3.17;;;;;;;;;;5079011;28;20398;-72
2023/10/21 21:49:45;;;;;;;9.98;3.00;;;;;;;;;;5079856;28;20061;-74
2023/10/21 21:52:15;;;;;;;9.18;3.55;;;;;;;;;;5078783;28;20048;-75
2023/10/21 21:54:46;;;;;;;10.23;3.60;;;;;;;;;;5078715;28;20455;-73
2023/10/21 21:57:23;;;;;;;12.90;3.42;;;;;;;;;;5086656;28;20070;-74
2023/10/21 22:00:53;;;;;;;7.97;2.83;;;;;;;;;;5099375;28;20413;-74
2023/10/21 22:03:38;;;;;;;10.98;3.58;;;;;;;;;;5098742;28;20044;-73
2023/10/21 22:06:13;;;;;;;10.68;3.42;;;;;;;;;;5098563;28;20051;-73
2023/10/21 22:08:43;;;;;;;9.77;3.40;;;;;;;;;;5098370;28;20048;-74
2023/10/21 22:11:14;;;;;;;9.23;3.47;;;;;;;;;;5097812;28;20480;-73
2023/10/21 22:13:45;;;;;;;8.43;3.30;;;;;;;;;;5098528;28;20489;-74
2023/10/21 22:16:16;;;;;;;14.30;3.47;;;;;;;;;;5098935;28;20046;-73
2023/10/21 22:18:46;;;;;;;12.65;3.72;;;;;;;;;;5098804;28;20490;-73
2023/10/21 22:21:36;;;;;;;8.48;2.88;;;;;;;;;;5087655;28;20521;-75
2023/10/21 22:24:38;;;;;;;11.50;3.50;;;;;;;;;;5085048;28;20044;-75
2023/10/21 22:28:50;;;;;;;9.45;3.33;;;;;;;;;;5087987;28;20398;-74
2023/10/21 22:33:12;;;;;;;8.82;3.45;;;;;;;;;;5086321;28;20052;-78
2023/10/21 22:37:50;;;;;;;8.52;3.10;;;;;;;;;;5084986;28;20048;-72
2023/10/21 22:50:00;;;;;;;11.65;4.05;;;;;;;;;;5084603;28;20051;-74
2023/10/21 22:53:12;;;;;;;27.83;11.88;;;;;;;;;;5084076;28;20071;-72
2023/10/21 23:00:11;;;;;;;12.48;4.53;;;;;;;;;;5084392;28;20790;-75
2023/10/21 23:02:43;;;;;;;13.70;4.20;;;;;;;;;;5084410;28;20044;-75
2023/10/21 23:05:14;;;;;;;10.80;4.68;;;;;;;;;;5083992;28;20389;-75
2023/10/21 23:07:50;;;;;;;17.10;5.82;;;;;;;;;;5084612;28;20422;-74
2023/10/21 23:14:40;;;;;;;12.90;4.45;;;;;;;;;;5084993;28;20090;-74
2023/10/21 23:17:20;;;;;;;12.60;3.95;;;;;;;;;;5083873;28;20058;-77
2023/10/21 23:19:50;;;;;;;21.13;4.53;;;;;;;;;;5083689;28;20055;-76
2023/10/21 23:23:29;;;;;;;13.35;4.22;;;;;;;;;;5082295;28;20514;-77
2023/10/21 23:26:00;;;;;;;10.48;4.28;;;;;;;;;;5078884;28;20056;-75
2023/10/21 23:28:31;;;;;;;10.40;4.32;;;;;;;;;;5084056;28;20051;-73
2023/10/21 23:31:12;;;;;;;16.88;4.57;;;;;;;;;;5082967;28;20040;-73
2023/10/21 23:34:31;;;;;;;13.15;3.97;;;;;;;;;;5065615;28;20052;-74
2023/10/21 23:37:02;;;;;;;11.25;4.38;;;;;;;;;;5083443;28;20483;-74
2023/10/21 23:39:31;;;;;;;11.00;4.05;;;;;;;;;;5083750;28;20044;-74
2023/10/21 23:42:02;;;;;;;17.70;5.22;;;;;;;;;;5083656;28;20051;-75
2023/10/21 23:48:08;;;;;;;9.95;4.32;;;;;;;;;;5082837;28;20040;-74
2023/10/21 23:50:38;;;;;;;10.70;3.60;;;;;;;;;;5082852;28;20501;-76
2023/10/21 23:53:08;;;;;;;17.25;3.97;;;;;;;;;;5065678;28;20044;-74
2023/10/21 23:55:40;;;;;;;14.60;3.97;;;;;;;;;;5083198;28;20040;-75
2023/10/21 23:59:07;;;;;;;8.80;3.45;;;;;;;;;;5082808;28;20040;-76
